sensor_id;sensor_type;location;lat;lon;timestamp;P1;P2;P0
66155;PMS5003;52957;50.848;20.656;2024-02-14T00:00:11;45;38;25
66155;PMS5003;52957;50.848;20.656;2024-02-14T00:10:08;53;42;24
66155;PMS5003;52957;50.848;20.656;2024-02-14T00:20:13;53;42;24
66155;PMS5003;52957;50.848;20.656;2024-02-14T00:30:12;53;42;24
66155;PMS5003;52957;50.848;20.656;2024-02-14T00:40:12;39;35;22
66155;PMS5003;52957;50.848;20.656;2024-02-14T00:50:02;39;35;22
66155;PMS5003;52957;50.848;20.656;2024-02-14T01:00:13;39;35;22
66155;PMS5003;52957;50.848;20.656;2024-02-14T01:10:10;39;33;18
66155;PMS5003;52957;50.848;20.656;2024-02-14T01:20:10;39;33;18
66155;PMS5003;52957;50.848;20.656;2024-02-14T01:30:09;39;33;18
66155;PMS5003;52957;50.848;20.656;2024-02-14T01:40:15;39;36;21
66155;PMS5003;52957;50.848;20.656;2024-02-14T01:50:16;39;36;21
66155;PMS5003;52957;50.848;20.656;2024-02-14T02:00:08;39;36;21
66155;PMS5003;52957;50.848;20.656;2024-02-14T02:10:11;37;34;20
66155;PMS5003;52957;50.848;20.656;2024-02-14T02:20:06;37;34;20
66155;PMS5003;52957;50.848;20.656;2024-02-14T02:30:15;37;34;20
66155;PMS5003;52957;50.848;20.656;2024-02-14T02:40:02;48;37;24
66155;PMS5003;52957;50.848;20.656;2024-02-14T02:50:13;48;37;24
66155;PMS5003;52957;50.848;20.656;2024-02-14T03:00:21;48;37;24
66155;PMS5003;52957;50.848;20.656;2024-02-14T03:10:06;41;34;21
66155;PMS5003;52957;50.848;20.656;2024-02-14T03:20:14;41;34;21
66155;PMS5003;52957;50.848;20.656;2024-02-14T03:30:05;41;34;21
66155;PMS5003;52957;50.848;20.656;2024-02-14T03:40:06;50;41;22
66155;PMS5003;52957;50.848;20.656;2024-02-14T03:50:02;50;41;22
66155;PMS5003;52957;50.848;20.656;2024-02-14T04:00:13;50;41;22
66155;PMS5003;52957;50.848;20.656;2024-02-14T04:10:05;57;47;32
66155;PMS5003;52957;50.848;20.656;2024-02-14T04:20:06;57;47;32
66155;PMS5003;52957;50.848;20.656;2024-02-14T04:30:11;57;47;32
66155;PMS5003;52957;50.848;20.656;2024-02-14T04:40:14;46;37;23
66155;PMS5003;52957;50.848;20.656;2024-02-14T04:50:02;46;37;23
66155;PMS5003;52957;50.848;20.656;2024-02-14T05:00:12;46;37;23
66155;PMS5003;52957;50.848;20.656;2024-02-14T05:10:08;50;41;26
66155;PMS5003;52957;50.848;20.656;2024-02-14T05:20:11;50;41;26
66155;PMS5003;52957;50.848;20.656;2024-02-14T05:30:09;50;41;26
66155;PMS5003;52957;50.848;20.656;2024-02-14T05:40:07;71;55;35
66155;PMS5003;52957;50.848;20.656;2024-02-14T05:50:13;71;55;35
66155;PMS5003;52957;50.848;20.656;2024-02-14T06:00:13;71;55;35
66155;PMS5003;52957;50.848;20.656;2024-02-14T06:10:11;41;38;25
66155;PMS5003;52957;50.848;20.656;2024-02-14T06:20:14;41;38;25
66155;PMS5003;52957;50.848;20.656;2024-02-14T06:30:02;41;38;25
66155;PMS5003;52957;50.848;20.656;2024-02-14T06:40:09;79;59;37
66155;PMS5003;52957;50.848;20.656;2024-02-14T06:50:12;79;59;37
66155;PMS5003;52957;50.848;20.656;2024-02-14T07:00:10;79;59;37
66155;PMS5003;52957;50.848;20.656;2024-02-14T07:10:02;104;90;48
66155;PMS5003;52957;50.848;20.656;2024-02-14T07:20:14;104;90;48
66155;PMS5003;52957;50.848;20.656;2024-02-14T07:30:15;104;90;48
66155;PMS5003;52957;50.848;20.656;2024-02-14T07:40:12;67;52;33
66155;PMS5003;52957;50.848;20.656;2024-02-14T07:50:09;67;52;33
66155;PMS5003;52957;50.848;20.656;2024-02-14T08:00:13;67;52;33
66155;PMS5003;52957;50.848;20.656;2024-02-14T08:10:11;45;35;21
66155;PMS5003;52957;50.848;20.656;2024-02-14T08:20:05;45;35;21
66155;PMS5003;52957;50.848;20.656;2024-02-14T08:30:12;45;35;21
66155;PMS5003;52957;50.848;20.656;2024-02-14T08:40:10;22;21;12
66155;PMS5003;52957;50.848;20.656;2024-02-14T08:50:05;22;21;12
66155;PMS5003;52957;50.848;20.656;2024-02-14T09:00:02;22;21;12
66155;PMS5003;52957;50.848;20.656;2024-02-14T09:20:14;27;21;14
66155;PMS5003;52957;50.848;20.656;2024-02-14T09:30:12;27;21;14
66155;PMS5003;52957;50.848;20.656;2024-02-14T09:50:15;13;13;8
66155;PMS5003;52957;50.848;20.656;2024-02-14T10:00:14;13;13;8
66155;PMS5003;52957;50.848;20.656;2024-02-14T10:10:14;5;5;3
66155;PMS5003;52957;50.848;20.656;2024-02-14T10:20:06;5;5;3
66155;PMS5003;52957;50.848;20.656;2024-02-14T10:30:09;5;5;3
66155;PMS5003;52957;50.848;20.656;2024-02-14T10:40:13;7;7;4
66155;PMS5003;52957;50.848;20.656;2024-02-14T10:50:03;7;7;4
66155;PMS5003;52957;50.848;20.656;2024-02-14T11:00:22;7;7;4
66155;PMS5003;52957;50.848;20.656;2024-02-14T11:20:30;18;15;10
66155;PMS5003;52957;50.848;20.656;2024-02-14T11:30:02;18;15;10
66155;PMS5003;52957;50.848;20.656;2024-02-14T11:40:14;10;9;6
66155;PMS5003;52957;50.848;20.656;2024-02-14T11:50:02;10;9;6
66155;PMS5003;52957;50.848;20.656;2024-02-14T12:00:13;10;9;6
66155;PMS5003;52957;50.848;20.656;2024-02-14T12:10:04;12;11;7
66155;PMS5003;52957;50.848;20.656;2024-02-14T12:20:23;12;11;7
66155;PMS5003;52957;50.848;20.656;2024-02-14T12:30:05;12;11;7
66155;PMS5003;52957;50.848;20.656;2024-02-14T12:40:16;7;7;5
66155;PMS5003;52957;50.848;20.656;2024-02-14T12:50:12;7;7;5
66155;PMS5003;52957;50.848;20.656;2024-02-14T13:00:14;7;7;5
66155;PMS5003;52957;50.848;20.656;2024-02-14T13:10:08;13;12;9
66155;PMS5003;52957;50.848;20.656;2024-02-14T13:20:08;13;12;9
66155;PMS5003;52957;50.848;20.656;2024-02-14T13:30:09;13;12;9
66155;PMS5003;52957;50.848;20.656;2024-02-14T13:40:12;15;13;9
66155;PMS5003;52957;50.848;20.656;2024-02-14T13:50:04;15;13;9
66155;PMS5003;52957;50.848;20.656;2024-02-14T14:00:14;15;13;9
66155;PMS5003;52957;50.848;20.656;2024-02-14T14:20:11;13;13;9
66155;PMS5003;52957;50.848;20.656;2024-02-14T14:30:02;13;13;9
66155;PMS5003;52957;50.848;20.656;2024-02-14T14:40:05;19;18;11
66155;PMS5003;52957;50.848;20.656;2024-02-14T14:50:09;19;18;11
66155;PMS5003;52957;50.848;20.656;2024-02-14T15:00:13;19;18;11
66155;PMS5003;52957;50.848;20.656;2024-02-14T15:10:12;73;56;34
66155;PMS5003;52957;50.848;20.656;2024-02-14T15:20:13;73;56;34
66155;PMS5003;52957;50.848;20.656;2024-02-14T15:40:09;158;140;80
66155;PMS5003;52957;50.848;20.656;2024-02-14T15:50:02;158;140;80
66155;PMS5003;52957;50.848;20.656;2024-02-14T16:00:06;158;140;80
66155;PMS5003;52957;50.848;20.656;2024-02-14T16:10:07;130;108;53
66155;PMS5003;52957;50.848;20.656;2024-02-14T16:20:14;130;108;53
66155;PMS5003;52957;50.848;20.656;2024-02-14T16:30:15;130;108;53
66155;PMS5003;52957;50.848;20.656;2024-02-14T16:40:09;113;103;61
66155;PMS5003;52957;50.848;20.656;2024-02-14T16:50:02;113;103;61
66155;PMS5003;52957;50.848;20.656;2024-02-14T17:00:02;113;103;61
66155;PMS5003;52957;50.848;20.656;2024-02-14T17:20:13;104;95;57
66155;PMS5003;52957;50.848;20.656;2024-02-14T17:30:10;104;95;57
66155;PMS5003;52957;50.848;20.656;2024-02-14T17:50:10;101;91;53
66155;PMS5003;52957;50.848;20.656;2024-02-14T18:00:20;101;91;53
66155;PMS5003;52957;50.848;20.656;2024-02-14T18:20:02;117;98;56
66155;PMS5003;52957;50.848;20.656;2024-02-14T18:30:07;117;98;56
66155;PMS5003;52957;50.848;20.656;2024-02-14T18:50:06;80;60;37
66155;PMS5003;52957;50.848;20.656;2024-02-14T19:00:13;80;60;37
66155;PMS5003;52957;50.848;20.656;2024-02-14T19:20:14;75;58;35
66155;PMS5003;52957;50.848;20.656;2024-02-14T19:30:11;75;58;35
66155;PMS5003;52957;50.848;20.656;2024-02-14T19:40:14;75;58;35
66155;PMS5003;52957;50.848;20.656;2024-02-14T19:50:16;36;35;25
66155;PMS5003;52957;50.848;20.656;2024-02-14T20:00:17;36;35;25
66155;PMS5003;52957;50.848;20.656;2024-02-14T20:10:11;36;35;25
66155;PMS5003;52957;50.848;20.656;2024-02-14T20:20:05;68;55;33
66155;PMS5003;52957;50.848;20.656;2024-02-14T20:30:12;68;55;33
66155;PMS5003;52957;50.848;20.656;2024-02-14T20:40:04;68;55;33
66155;PMS5003;52957;50.848;20.656;2024-02-14T20:50:02;126;109;57
66155;PMS5003;52957;50.848;20.656;2024-02-14T21:00:12;126;109;57
66155;PMS5003;52957;50.848;20.656;2024-02-14T21:10:10;126;109;57
66155;PMS5003;52957;50.848;20.656;2024-02-14T21:20:10;84;69;40
66155;PMS5003;52957;50.848;20.656;2024-02-14T21:30:08;84;69;40
66155;PMS5003;52957;50.848;20.656;2024-02-14T21:40:11;84;69;40
66155;PMS5003;52957;50.848;20.656;2024-02-14T21:50:12;113;93;53
66155;PMS5003;52957;50.848;20.656;2024-02-14T22:00:08;113;93;53
66155;PMS5003;52957;50.848;20.656;2024-02-14T22:10:11;113;93;53
66155;PMS5003;52957;50.848;20.656;2024-02-14T22:20:12;72;55;33
66155;PMS5003;52957;50.848;20.656;2024-02-14T22:30:14;72;55;33
66155;PMS5003;52957;50.848;20.656;2024-02-14T22:40:09;72;55;33
66155;PMS5003;52957;50.848;20.656;2024-02-14T22:50:02;52;43;28
66155;PMS5003;52957;50.848;20.656;2024-02-14T23:00:09;52;43;28
66155;PMS5003;52957;50.848;20.656;2024-02-14T23:10:12;47;39;24
66155;PMS5003;52957;50.848;20.656;2024-02-14T23:20:12;47;39;24
66155;PMS5003;52957;50.848;20.656;2024-02-14T23:30:08;47;39;24
66155;PMS5003;52957;50.848;20.656;2024-02-14T23:40:02;45;38;25
66155;PMS5003;52957;50.848;20.656;2024-02-14T23:50:14;45;38;25
